Terminal Aerodrome Forecast
Issued by NWS Sioux Falls, SD

Home | Current Version | Previous Version | Text Only | Print | Product List | Glossary Off
Versions: 1 2 3 4 5 6 7 8 9 10 11 12 13

000
FTUS43 KFSD 200520
TAFFSD
TAF
KFSD 200520Z 2006/2106 05006KT P6SM OVC120
     FM201000 VRB03KT P6SM -RA OVC060
     FM201600 36006KT P6SM SCT050 OVC120
     FM210000 27004KT P6SM SCT140=

USA.gov is the U.S. government's official web portal to all federal, state and local government web resources and services.